createdAt,value
2022-08-03T00:01:51.125Z,98198.41
2022-08-03T00:03:54.230Z,98190.59
2022-08-03T00:06:04.080Z,98189.94
2022-08-03T00:08:09.283Z,98193.91
2022-08-03T00:10:12.552Z,98186.28
2022-08-03T00:12:15.858Z,98193.94
2022-08-03T00:14:19.084Z,98193.25
2022-08-03T00:16:22.227Z,98195.41
2022-08-03T00:18:26.473Z,98193.91
2022-08-03T00:20:29.554Z,98188.13
2022-08-03T00:22:32.974Z,98197.25
2022-08-03T00:24:37.366Z,98185.97
2022-08-03T00:26:40.373Z,98185.97
2022-08-03T00:28:43.528Z,98193.13
2022-08-03T00:30:46.771Z,98188.13
2022-08-03T00:32:50.679Z,98189.28
2022-08-03T00:34:57.906Z,98188.66
2022-08-03T00:37:02.298Z,98181.84
2022-08-03T00:39:05.375Z,98178.69
2022-08-03T00:41:10.097Z,98179.38
2022-08-03T00:43:13.205Z,98184.69
2022-08-03T00:45:16.337Z,98189.31
2022-08-03T00:47:19.419Z,98180.34
2022-08-03T00:49:22.613Z,98176.53
2022-08-03T00:51:26.809Z,98183.97
2022-08-03T00:53:29.950Z,98172.34
2022-08-03T00:55:33.318Z,98178.69
2022-08-03T00:57:38.288Z,98187.28
2022-08-03T00:59:41.309Z,98177.50
2022-08-03T01:01:44.508Z,98181.69
2022-08-03T01:03:47.597Z,98183.31
2022-08-03T01:05:54.448Z,98187.00
2022-08-03T01:08:04.187Z,98179.19
2022-08-03T01:10:13.740Z,98180.31
2022-08-03T01:12:23.896Z,98183.13
2022-08-03T01:14:34.137Z,98183.13
2022-08-03T01:16:41.753Z,98185.78
2022-08-03T01:18:48.203Z,98180.63
2022-08-03T01:20:54.673Z,98180.63
2022-08-03T01:23:34.861Z,98172.84
2022-08-03T01:25:46.996Z,98179.34
2022-08-03T01:28:06.004Z,98178.81
2022-08-03T01:30:11.971Z,98168.38
2022-08-03T01:32:59.042Z,98171.34
2022-08-03T01:34:46.715Z,98175.34
2022-08-03T01:36:52.701Z,98173.66
2022-08-03T01:39:00.511Z,98176.81
2022-08-03T01:41:06.189Z,98170.84
2022-08-03T01:43:10.795Z,98165.72
2022-08-03T01:45:17.897Z,98158.75
2022-08-03T01:47:21.640Z,98162.53
2022-08-03T01:49:25.863Z,98160.75
2022-08-03T01:51:58.470Z,98159.06
2022-08-03T01:53:55.188Z,98161.06
2022-08-03T01:55:58.679Z,98160.53
2022-08-03T01:58:06.821Z,98160.72
2022-08-03T02:00:11.396Z,98156.75
2022-08-03T02:02:33.295Z,98157.06
2022-08-03T02:04:39.351Z,98162.53
2022-08-03T02:06:59.779Z,98161.00
2022-08-03T02:09:04.631Z,98151.59
2022-08-03T02:11:08.060Z,98158.03
2022-08-03T02:13:11.897Z,98157.53
2022-08-03T02:15:16.844Z,98152.19
2022-08-03T02:17:38.938Z,98144.06
2022-08-03T02:19:43.899Z,98149.84
2022-08-03T02:21:56.694Z,98150.84
2022-08-03T02:24:05.743Z,98146.66
2022-08-03T02:26:13.293Z,98139.88
2022-08-03T02:28:18.508Z,98148.81
2022-08-03T02:30:22.348Z,98153.25
2022-08-03T02:32:31.617Z,98146.16
2022-08-03T02:34:36.319Z,98145.16
2022-08-03T02:36:41.043Z,98146.16
2022-08-03T02:38:45.443Z,98140.34
2022-08-03T02:40:50.444Z,98147.47
2022-08-03T02:42:57.372Z,98145.63
2022-08-03T02:45:03.466Z,98138.53
2022-08-03T02:47:09.418Z,98140.34
2022-08-03T02:49:41.019Z,98140.19
2022-08-03T02:51:40.255Z,98142.00
2022-08-03T02:53:43.509Z,98140.66
2022-08-03T02:55:47.964Z,98139.66
2022-08-03T02:57:51.399Z,98148.56
2022-08-03T02:59:57.691Z,98152.38
2022-08-03T03:02:01.675Z,98147.38
2022-08-03T03:04:05.143Z,98147.53
2022-08-03T03:06:14.117Z,98149.84
2022-08-03T03:08:20.773Z,98148.34
2022-08-03T03:10:29.089Z,98147.69
2022-08-03T03:12:32.900Z,98149.66
2022-08-03T03:14:36.082Z,98142.84
2022-08-03T03:16:39.616Z,98148.16
2022-08-03T03:18:44.393Z,98147.66
2022-08-03T03:20:47.796Z,98140.03
2022-08-03T03:22:52.892Z,98141.47
2022-08-03T03:24:56.477Z,98141.78
2022-08-03T03:27:01.770Z,98143.44
2022-08-03T03:29:05.491Z,98140.81
2022-08-03T03:31:09.266Z,98145.13
2022-08-03T03:33:12.651Z,98145.13
2022-08-03T03:35:16.691Z,98145.78
2022-08-03T03:37:19.743Z,98144.13
2022-08-03T03:39:24.238Z,98143.97
2022-08-03T03:41:27.762Z,98148.59
2022-08-03T03:43:36.998Z,98147.63
2022-08-03T03:45:42.124Z,98141.47
2022-08-03T03:47:45.242Z,98142.16
2022-08-03T03:49:48.371Z,98142.31
2022-08-03T03:51:54.019Z,98143.28
2022-08-03T03:53:58.294Z,98140.00
2022-08-03T03:56:03.256Z,98134.69
2022-08-03T03:58:06.877Z,98140.16
2022-08-03T04:00:11.269Z,98138.47
2022-08-03T04:02:14.617Z,98142.09
2022-08-03T04:04:35.284Z,98144.06
2022-08-03T04:06:55.708Z,98141.75
2022-08-03T04:09:16.445Z,98151.66
2022-08-03T04:11:29.073Z,98143.88
2022-08-03T04:13:35.658Z,98151.81
2022-08-03T04:15:39.561Z,98149.16
2022-08-03T04:17:43.065Z,98150.97
2022-08-03T04:19:48.592Z,98161.38
2022-08-03T04:21:57.304Z,98150.97
2022-08-03T04:24:03.235Z,98154.78
2022-08-03T04:26:09.554Z,98162.00
2022-08-03T04:28:30.407Z,98159.53
2022-08-03T04:30:37.527Z,98146.47
2022-08-03T04:32:45.830Z,98149.78
2022-08-03T04:34:49.172Z,98157.56
2022-08-03T04:36:54.899Z,98153.09
2022-08-03T04:39:05.019Z,98149.63
2022-08-03T04:41:08.805Z,98162.88
2022-08-03T04:43:14.767Z,98153.63
2022-08-03T04:45:18.964Z,98154.81
2022-08-03T04:47:22.234Z,98168.94
2022-08-03T04:49:25.651Z,98168.31
2022-08-03T04:51:29.140Z,98173.78
2022-08-03T04:53:34.742Z,98177.59
2022-08-03T04:55:38.012Z,98173.81
2022-08-03T04:57:41.092Z,98174.47
2022-08-03T04:59:45.628Z,98180.97
2022-08-03T05:01:49.254Z,98176.88
2022-08-03T05:03:52.529Z,98185.00
2022-08-03T05:06:01.838Z,98172.44
2022-08-03T05:08:14.177Z,98180.75
2022-08-03T05:10:17.862Z,98183.75
2022-08-03T05:12:21.009Z,98173.69
2022-08-03T05:14:28.084Z,98178.50
2022-08-03T05:16:34.571Z,98177.03
2022-08-03T05:18:37.757Z,98180.84
2022-08-03T05:20:40.956Z,98191.97
2022-08-03T05:22:44.153Z,98187.66
2022-08-03T05:24:47.273Z,98193.16
2022-08-03T05:26:50.434Z,98187.56
2022-08-03T05:28:53.631Z,98196.66
2022-08-03T05:30:56.677Z,98195.03
2022-08-03T05:33:01.215Z,98195.03
2022-08-03T05:35:56.830Z,98195.03
2022-08-03T05:37:27.799Z,98201.22
2022-08-03T05:39:30.922Z,98199.09
2022-08-03T05:41:36.920Z,98204.88
2022-08-03T05:43:40.605Z,98198.75
2022-08-03T05:45:44.378Z,98202.97
2022-08-03T05:47:47.980Z,98203.00
2022-08-03T05:49:52.496Z,98209.00
2022-08-03T05:52:08.896Z,98209.50
2022-08-03T05:54:18.735Z,98206.81
2022-08-03T05:56:24.274Z,98208.47
2022-08-03T05:58:29.994Z,98211.38
2022-08-03T06:00:33.240Z,98210.97
2022-08-03T06:02:36.665Z,98216.84
2022-08-03T06:04:39.773Z,98207.91
2022-08-03T06:06:44.248Z,98210.41
2022-08-03T06:08:48.867Z,98215.78
2022-08-03T06:10:52.056Z,98221.41
2022-08-03T06:12:55.319Z,98216.34
2022-08-03T06:14:58.493Z,98220.25
2022-08-03T06:17:01.664Z,98216.66
2022-08-03T06:19:04.782Z,98206.06
2022-08-03T06:21:14.333Z,98212.78
2022-08-03T06:23:19.647Z,98214.91
2022-08-03T06:25:23.126Z,98220.16
2022-08-03T06:27:36.349Z,98216.94
2022-08-03T06:29:40.319Z,98211.88
2022-08-03T06:31:43.431Z,98212.38
2022-08-03T06:34:30.229Z,98209.53
2022-08-03T06:36:10.358Z,98218.03
2022-08-03T06:38:15.279Z,98207.59
2022-08-03T06:40:28.480Z,98214.44
2022-08-03T06:42:31.567Z,98227.44
2022-08-03T06:44:38.747Z,98218.56
2022-08-03T06:46:42.336Z,98220.41
2022-08-03T06:48:45.497Z,98218.09
2022-08-03T06:50:48.601Z,98222.59
2022-08-03T06:52:51.566Z,98219.63
2022-08-03T06:54:54.731Z,98223.91
2022-08-03T06:56:59.479Z,98217.28
2022-08-03T06:59:02.774Z,98228.34
2022-08-03T07:01:06.009Z,98220.81
2022-08-03T07:03:09.152Z,98233.53
2022-08-03T07:05:13.345Z,98227.22
2022-08-03T07:07:17.357Z,98228.31
2022-08-03T07:09:20.797Z,98229.56
2022-08-03T07:11:23.871Z,98226.56
2022-08-03T07:13:28.943Z,98230.78
2022-08-03T07:15:54.463Z,98224.03
2022-08-03T07:17:55.185Z,98222.88
2022-08-03T07:19:58.648Z,98220.88
2022-08-03T07:22:04.475Z,98221.91
2022-08-03T07:24:08.022Z,98224.19
2022-08-03T07:26:11.637Z,98220.03
2022-08-03T07:28:14.728Z,98215.31
2022-08-03T07:30:19.698Z,98221.50
2022-08-03T07:32:23.038Z,98222.94
2022-08-03T07:34:26.174Z,98221.34
2022-08-03T07:36:29.341Z,98223.22
2022-08-03T07:38:32.489Z,98218.09
2022-08-03T07:40:35.819Z,98212.94
2022-08-03T07:42:38.905Z,98215.16
2022-08-03T07:44:42.123Z,98216.72
2022-08-03T07:46:46.632Z,98214.09
2022-08-03T07:48:49.783Z,98214.34
2022-08-03T07:50:52.931Z,98209.50
2022-08-03T07:52:57.894Z,98212.09
2022-08-03T07:55:00.983Z,98203.38
2022-08-03T07:57:04.101Z,98201.50
2022-08-03T07:59:07.185Z,98205.91
2022-08-03T08:01:10.376Z,98212.19
2022-08-03T08:03:19.757Z,98206.88
2022-08-03T08:05:22.993Z,98206.63
2022-08-03T08:07:26.356Z,98204.31
2022-08-03T08:09:29.613Z,98207.50
2022-08-03T08:11:34.839Z,98198.16
2022-08-03T08:13:41.323Z,98194.28
2022-08-03T08:15:44.617Z,98205.28
2022-08-03T08:17:53.537Z,98200.31
2022-08-03T08:19:58.291Z,98203.25
2022-08-03T08:22:03.094Z,98199.22
2022-08-03T08:24:13.361Z,98198.59
2022-08-03T08:26:22.879Z,98194.88
2022-08-03T08:28:32.191Z,98199.13
2022-08-03T08:30:36.538Z,98199.56
2022-08-03T08:32:39.667Z,98195.38
2022-08-03T08:34:43.043Z,98201.22
2022-08-03T08:36:47.749Z,98204.84
2022-08-03T08:38:51.322Z,98192.22
2022-08-03T08:40:56.891Z,98197.09
2022-08-03T08:43:00.192Z,98196.84
2022-08-03T08:45:05.186Z,98198.44
2022-08-03T08:47:09.591Z,98195.50
2022-08-03T08:49:13.769Z,98193.84
2022-08-03T08:51:18.238Z,98189.03
2022-08-03T08:53:27.161Z,98191.84
2022-08-03T08:56:00.146Z,98196.78
2022-08-03T08:57:59.186Z,98193.38
2022-08-03T09:00:03.287Z,98187.44
2022-08-03T09:02:06.621Z,98183.59
2022-08-03T09:04:09.909Z,98186.59
2022-08-03T09:06:13.083Z,98183.09
2022-08-03T09:08:16.165Z,98190.44
2022-08-03T09:10:21.994Z,98192.94
2022-08-03T09:12:42.420Z,98184.81
2022-08-03T09:15:07.243Z,98185.91
2022-08-03T09:17:10.060Z,98180.47
2022-08-03T09:19:20.170Z,98187.59
2022-08-03T09:21:33.679Z,98190.63
2022-08-03T09:24:01.515Z,98184.91
2022-08-03T09:26:09.129Z,98179.47
2022-08-03T09:28:32.439Z,98177.03
2022-08-03T09:30:40.389Z,98182.72
2022-08-03T09:32:44.952Z,98180.28
2022-08-03T09:34:49.357Z,98181.06
2022-08-03T09:36:54.068Z,98178.88
2022-08-03T09:39:04.509Z,98169.59
2022-08-03T09:41:19.140Z,98177.75
2022-08-03T09:43:22.607Z,98176.16
2022-08-03T09:45:30.043Z,98179.75
2022-08-03T09:47:36.256Z,98177.81
2022-08-03T09:49:41.482Z,98176.44
2022-08-03T09:52:37.929Z,98187.66
2022-08-03T09:54:16.345Z,98172.41
2022-08-03T09:56:34.219Z,98168.53
2022-08-03T09:58:46.971Z,98168.25
2022-08-03T10:00:58.842Z,98161.44
2022-08-03T10:03:05.787Z,98157.38
2022-08-03T10:05:10.717Z,98158.44
2022-08-03T10:07:22.224Z,98157.34
2022-08-03T10:09:25.364Z,98158.16
2022-08-03T10:11:35.222Z,98150.56
2022-08-03T10:13:43.841Z,98154.16
2022-08-03T10:16:22.944Z,98158.31
2022-08-03T10:18:10.504Z,98158.06
2022-08-03T10:20:13.646Z,98155.91
2022-08-03T10:22:18.259Z,98148.56
2022-08-03T10:24:26.022Z,98147.13
2022-08-03T10:26:34.912Z,98151.97
2022-08-03T10:28:45.348Z,98145.66
2022-08-03T10:30:51.093Z,98136.34
2022-08-03T10:32:57.502Z,98128.44
2022-08-03T10:35:20.165Z,98126.63
2022-08-03T10:37:26.120Z,98136.72
2022-08-03T10:39:31.036Z,98134.53
2022-08-03T10:41:39.631Z,98133.06
2022-08-03T10:43:49.041Z,98120.25
2022-08-03T10:45:52.452Z,98120.03
2022-08-03T10:47:57.143Z,98126.81
2022-08-03T10:50:00.915Z,98125.22
2022-08-03T10:52:11.375Z,98116.66
2022-08-03T10:55:03.260Z,98117.13
2022-08-03T10:57:25.659Z,98113.94
2022-08-03T10:59:59.445Z,98108.25
2022-08-03T11:02:02.501Z,98111.47
2022-08-03T11:04:26.713Z,98116.03
2022-08-03T11:06:37.231Z,98107.13
2022-08-03T11:08:40.839Z,98111.22
2022-08-03T11:10:44.017Z,98109.03
2022-08-03T11:12:48.616Z,98107.72
2022-08-03T11:14:51.838Z,98109.06
2022-08-03T11:17:14.536Z,98111.25
2022-08-03T11:19:22.364Z,98107.41
2022-08-03T11:21:58.856Z,98106.56
2022-08-03T11:24:03.443Z,98102.47
2022-08-03T11:26:17.466Z,98093.97
2022-08-03T11:28:28.856Z,98099.09
2022-08-03T11:30:32.164Z,98093.28
2022-08-03T11:32:58.755Z,98097.06
2022-08-03T11:35:09.220Z,98089.81
2022-08-03T11:37:27.278Z,98096.88
2022-08-03T11:39:40.306Z,98092.34
2022-08-03T11:41:45.576Z,98084.69
2022-08-03T11:43:50.101Z,98083.81
2022-08-03T11:45:58.912Z,98070.03
2022-08-03T11:48:12.167Z,98083.44
2022-08-03T11:50:17.287Z,98081.56
2022-08-03T11:52:26.727Z,98076.97
2022-08-03T11:54:31.822Z,98074.34
2022-08-03T11:56:45.644Z,98072.97
2022-08-03T11:59:09.311Z,98075.59
2022-08-03T12:01:21.191Z,98083.34
2022-08-03T12:03:26.107Z,98077.47
2022-08-03T12:05:52.242Z,98068.31
2022-08-03T12:08:04.122Z,98071.38
2022-08-03T12:10:09.981Z,98065.94
2022-08-03T12:12:17.134Z,98067.84
2022-08-03T12:14:50.728Z,98065.41
2022-08-03T12:16:48.344Z,98067.03
2022-08-03T12:18:56.853Z,98065.47
2022-08-03T12:21:06.738Z,98068.75
2022-08-03T12:23:10.780Z,98070.94
2022-08-03T12:25:38.796Z,98061.75
2022-08-03T12:27:43.170Z,98063.41
2022-08-03T12:29:58.571Z,98059.13
2022-08-03T12:32:02.338Z,98060.75
2022-08-03T12:34:07.119Z,98059.38
2022-08-03T12:36:11.909Z,98061.25
2022-08-03T12:38:15.169Z,98050.91
2022-08-03T12:40:28.371Z,98057.16
2022-08-03T12:42:31.746Z,98053.34
2022-08-03T12:44:36.583Z,98061.25
2022-08-03T12:46:47.739Z,98058.56
2022-08-03T12:49:13.473Z,98061.31
2022-08-03T12:51:16.669Z,98054.78
2022-08-03T12:53:30.179Z,98054.50
2022-08-03T12:55:57.708Z,98036.25
2022-08-03T12:57:59.493Z,98045.19
2022-08-03T13:00:21.618Z,98043.00
2022-08-03T13:02:34.452Z,98041.91
2022-08-03T13:04:38.095Z,98049.81
2022-08-03T13:06:41.170Z,98039.75
2022-08-03T13:08:46.006Z,98037.00
2022-08-03T13:10:49.586Z,98036.16
2022-08-03T13:12:53.259Z,98042.38
2022-08-03T13:14:58.039Z,98026.63
2022-08-03T13:17:01.191Z,98034.22
2022-08-03T13:19:06.353Z,98030.44
2022-08-03T13:21:19.141Z,98022.81
2022-08-03T13:23:22.881Z,98025.13
2022-08-03T13:25:26.023Z,98019.56
2022-08-03T13:28:03.828Z,98018.75
2022-08-03T13:29:53.965Z,98017.41
2022-08-03T13:31:57.266Z,98019.56
2022-08-03T13:34:00.700Z,98018.50
2022-08-03T13:36:05.331Z,98020.97
2022-08-03T13:38:08.498Z,98017.16
2022-08-03T13:40:12.582Z,98021.28
2022-08-03T13:42:17.867Z,98015.53
2022-08-03T13:44:29.795Z,98016.06
2022-08-03T13:46:33.243Z,98007.81
2022-08-03T13:48:37.617Z,97999.38
2022-08-03T13:50:43.119Z,98006.41
2022-08-03T13:52:48.157Z,98008.00
2022-08-03T13:54:51.505Z,98007.75
2022-08-03T13:56:58.968Z,98007.50
2022-08-03T13:59:06.183Z,98006.66
2022-08-03T14:01:09.796Z,98002.63
2022-08-03T14:03:14.487Z,98003.44
2022-08-03T14:05:18.221Z,97993.72
2022-08-03T14:07:21.672Z,97988.84
2022-08-03T14:09:29.241Z,97985.59
2022-08-03T14:12:07.931Z,97989.13
2022-08-03T14:13:55.787Z,97995.13
2022-08-03T14:15:58.988Z,97990.75
2022-08-03T14:18:02.369Z,97991.31
2022-08-03T14:20:33.846Z,97989.72
2022-08-03T14:22:30.054Z,97987.00
2022-08-03T14:24:34.535Z,97991.13
2022-08-03T14:26:37.867Z,97990.84
2022-08-03T14:28:41.140Z,97991.69
2022-08-03T14:30:44.298Z,97990.84
2022-08-03T14:32:47.407Z,97981.31
2022-08-03T14:34:50.483Z,97974.09
2022-08-03T14:36:53.784Z,97977.59
2022-08-03T14:39:01.052Z,97980.38
2022-08-03T14:41:06.061Z,97980.66
2022-08-03T14:43:16.550Z,97976.28
2022-08-03T14:45:20.370Z,97972.69
2022-08-03T14:47:23.776Z,97965.84
2022-08-03T14:50:34.124Z,97973.16
2022-08-03T14:51:51.433Z,97974.81
2022-08-03T14:53:56.507Z,97966.97
2022-08-03T14:55:59.659Z,97958.84
2022-08-03T14:58:05.775Z,97965.41
2022-08-03T15:00:23.319Z,97961.59
2022-08-03T15:02:27.847Z,97954.53
2022-08-03T15:04:31.376Z,97952.59
2022-08-03T15:06:34.448Z,97950.97
2022-08-03T15:08:37.544Z,97950.16
2022-08-03T15:10:44.233Z,97946.34
2022-08-03T15:12:47.804Z,97957.50
2022-08-03T15:14:52.531Z,97954.53
2022-08-03T15:16:55.592Z,97947.47
2022-08-03T15:18:58.701Z,97943.13
2022-08-03T15:21:02.310Z,97940.38
2022-08-03T15:23:05.638Z,97940.66
2022-08-03T15:26:03.612Z,97933.38
2022-08-03T15:27:32.309Z,97940.72
2022-08-03T15:30:05.653Z,97933.13
2022-08-03T15:32:00.096Z,97938.81
2022-08-03T15:34:03.195Z,97937.50
2022-08-03T15:36:06.657Z,97940.22
2022-08-03T15:38:09.898Z,97929.63
2022-08-03T15:40:13.914Z,97929.63
2022-08-03T15:42:17.073Z,97925.53
2022-08-03T15:44:21.011Z,97924.13
2022-08-03T15:46:29.530Z,97921.41
2022-08-03T15:48:34.919Z,97925.19
2022-08-03T15:50:37.982Z,97923.81
2022-08-03T15:52:40.996Z,97924.06
2022-08-03T15:54:44.083Z,97925.16
2022-08-03T15:56:47.198Z,97919.44
2022-08-03T15:59:04.117Z,97917.53
2022-08-03T16:01:19.171Z,97915.38
2022-08-03T16:03:22.735Z,97916.72
2022-08-03T16:05:27.437Z,97913.66
2022-08-03T16:08:03.235Z,97915.78
2022-08-03T16:10:08.669Z,97907.34
2022-08-03T16:12:16.350Z,97914.91
2022-08-03T16:14:34.499Z,97907.28
2022-08-03T16:16:43.488Z,97918.09
2022-08-03T16:18:46.683Z,97918.34
2022-08-03T16:20:51.170Z,97902.88
2022-08-03T16:22:56.430Z,97912.31
2022-08-03T16:24:59.784Z,97908.00
2022-08-03T16:27:03.075Z,97900.13
2022-08-03T16:29:22.425Z,97900.94
2022-08-03T16:31:28.879Z,97907.72
2022-08-03T16:33:32.418Z,97895.25
2022-08-03T16:35:35.556Z,97899.03
2022-08-03T16:37:40.434Z,97898.19
2022-08-03T16:39:55.501Z,97895.47
2022-08-03T16:42:01.042Z,97895.97
2022-08-03T16:44:09.564Z,97891.06
2022-08-03T16:46:13.084Z,97891.63
2022-08-03T16:48:16.136Z,97900.25
2022-08-03T16:50:20.005Z,97900.78
2022-08-03T16:52:23.448Z,97893.97
2022-08-03T16:54:28.125Z,97893.97
2022-08-03T16:56:32.607Z,97886.09
2022-08-03T16:58:41.906Z,97883.91
2022-08-03T17:00:46.480Z,97886.28
2022-08-03T17:02:52.900Z,97885.72
2022-08-03T17:04:58.039Z,97880.00
2022-08-03T17:07:04.590Z,97878.31
2022-08-03T17:09:10.193Z,97879.66
2022-08-03T17:11:15.185Z,97883.66
2022-08-03T17:13:21.707Z,97880.66
2022-08-03T17:15:57.262Z,97888.22
2022-08-03T17:17:53.578Z,97877.56
2022-08-03T17:19:59.595Z,97891.41
2022-08-03T17:22:05.653Z,97881.88
2022-08-03T17:24:12.515Z,97888.09
2022-08-03T17:26:21.855Z,97891.06
2022-08-03T17:28:48.358Z,97891.56
2022-08-03T17:31:23.565Z,97891.81
2022-08-03T17:33:35.416Z,97892.03
2022-08-03T17:35:39.006Z,97891.47
2022-08-03T17:37:57.677Z,97896.00
2022-08-03T17:40:03.807Z,97889.47
2022-08-03T17:42:29.277Z,97897.25
2022-08-03T17:44:39.941Z,97896.16
2022-08-03T17:46:51.395Z,97894.19
2022-08-03T17:48:55.080Z,97889.28
2022-08-03T17:51:02.140Z,97900.06
2022-08-03T17:53:24.545Z,97898.34
2022-08-03T17:55:57.600Z,97902.06
2022-08-03T17:58:03.333Z,97903.84
2022-08-03T18:00:22.955Z,97901.88
2022-08-03T18:02:53.261Z,97902.63
2022-08-03T18:05:00.676Z,97901.47
2022-08-03T18:07:11.647Z,97909.25
2022-08-03T18:10:04.168Z,97907.06
2022-08-03T18:11:39.120Z,97905.09
2022-08-03T18:13:53.506Z,97912.88
2022-08-03T18:16:02.756Z,97919.03
2022-08-03T18:18:10.707Z,97916.25
2022-08-03T18:20:31.048Z,97913.47
2022-08-03T18:22:38.048Z,97916.09
2022-08-03T18:24:45.733Z,97916.59
2022-08-03T18:26:52.325Z,97914.59
2022-08-03T18:28:58.605Z,97913.72
2022-08-03T18:31:04.389Z,97911.50
2022-08-03T18:34:19.924Z,97913.59
2022-08-03T18:35:53.120Z,97913.53
2022-08-03T18:38:00.971Z,97913.44
2022-08-03T18:40:07.417Z,97919.34
2022-08-03T18:42:19.663Z,97912.22
2022-08-03T18:44:53.410Z,97921.78
2022-08-03T18:46:51.713Z,97921.53
2022-08-03T18:49:08.190Z,97911.38
2022-08-03T18:51:24.111Z,97913.31
2022-08-03T18:54:01.764Z,97918.25
2022-08-03T18:56:08.638Z,97919.72
2022-08-03T18:58:23.253Z,97918.47
2022-08-03T19:00:42.695Z,97914.47
2022-08-03T19:02:58.790Z,97915.91
2022-08-03T19:05:06.409Z,97918.13
2022-08-03T19:07:16.139Z,97916.28
2022-08-03T19:09:23.718Z,97915.59
2022-08-03T19:12:26.015Z,97928.41
2022-08-03T19:14:02.134Z,97927.31
2022-08-03T19:16:09.106Z,97920.06
2022-08-03T19:18:18.420Z,97919.00
2022-08-03T19:20:25.521Z,97934.69
2022-08-03T19:22:28.690Z,97923.66
2022-08-03T19:24:36.243Z,97933.25
2022-08-03T19:26:41.248Z,97928.78
2022-08-03T19:28:44.590Z,97928.06
2022-08-03T19:30:56.839Z,97930.28
2022-08-03T19:33:03.905Z,97927.91
2022-08-03T19:35:13.523Z,97938.41
2022-08-03T19:37:22.994Z,97930.91
2022-08-03T19:39:26.930Z,97924.44
2022-08-03T19:41:42.133Z,97930.94
2022-08-03T19:43:53.877Z,97934.97
2022-08-03T19:46:06.061Z,97937.38
2022-08-03T19:48:14.562Z,97933.34
2022-08-03T19:50:20.438Z,97932.84
2022-08-03T19:52:24.392Z,97936.69
2022-08-03T19:54:45.644Z,97931.81
2022-08-03T19:56:57.156Z,97935.00
2022-08-03T19:59:00.951Z,97927.00
2022-08-03T20:01:21.399Z,97929.78
2022-08-03T20:03:43.466Z,97930.91
2022-08-03T20:05:51.799Z,97926.84
2022-08-03T20:08:00.008Z,97927.16
2022-08-03T20:10:05.305Z,97929.66
2022-08-03T20:12:10.188Z,97925.97
2022-08-03T20:14:20.933Z,97926.22
2022-08-03T20:16:29.805Z,97932.72
2022-08-03T20:18:39.159Z,97934.50
2022-08-03T20:20:43.273Z,97931.69
2022-08-03T20:22:51.312Z,97929.50
2022-08-03T20:24:56.200Z,97931.97
2022-08-03T20:27:01.408Z,97932.63
2022-08-03T20:29:10.264Z,97929.94
2022-08-03T20:31:13.702Z,97942.59
2022-08-03T20:33:18.226Z,97942.41
2022-08-03T20:35:23.932Z,97940.16
2022-08-03T20:37:27.557Z,97940.38
2022-08-03T20:39:33.957Z,97932.97
2022-08-03T20:41:37.354Z,97940.63
2022-08-03T20:43:41.863Z,97939.41
2022-08-03T20:48:09.407Z,97937.44
2022-08-03T20:50:13.029Z,97939.69
2022-08-03T20:52:18.830Z,97934.97
2022-08-03T20:54:29.436Z,97935.84
2022-08-03T20:56:35.961Z,97938.31
2022-08-03T20:58:41.648Z,97945.34
2022-08-03T21:00:45.071Z,97944.94
2022-08-03T21:02:48.243Z,97944.97
2022-08-03T21:04:51.542Z,97945.00
2022-08-03T21:07:00.624Z,97945.88
2022-08-03T21:09:07.754Z,97938.88
2022-08-03T21:11:13.244Z,97944.88
2022-08-03T21:13:07.419Z,97936.53
2022-08-03T21:16:07.145Z,97939.13
2022-08-03T21:17:53.672Z,97944.91
2022-08-03T21:19:58.719Z,97940.97
2022-08-03T21:22:03.796Z,97936.25
2022-08-03T21:24:11.789Z,97942.22
2022-08-03T21:26:17.511Z,97938.75
2022-08-03T21:28:27.439Z,97935.03
2022-08-03T21:30:31.766Z,97930.31
2022-08-03T21:32:35.105Z,97937.31
2022-08-03T21:34:38.280Z,97939.59
2022-08-03T21:36:41.314Z,97936.72
2022-08-03T21:38:47.611Z,97935.06
2022-08-03T21:41:03.144Z,97931.59
2022-08-03T21:43:06.302Z,97924.97
2022-08-03T21:45:16.902Z,97932.59
2022-08-03T21:47:23.096Z,97927.84
2022-08-03T21:50:07.872Z,97929.28
2022-08-03T21:51:51.401Z,97937.91
2022-08-03T21:54:02.441Z,97933.19
2022-08-03T21:56:10.106Z,97930.31
2022-08-03T21:58:15.349Z,97935.25
2022-08-03T22:00:20.583Z,97929.47
2022-08-03T22:02:31.382Z,97942.44
2022-08-03T22:04:50.008Z,97940.97
2022-08-03T22:06:56.345Z,97939.75
2022-08-03T22:09:00.269Z,97934.16
2022-08-03T22:11:04.207Z,97932.94
2022-08-03T22:13:09.251Z,97927.38
2022-08-03T22:15:13.749Z,97934.16
2022-08-03T22:17:23.777Z,97940.94
2022-08-03T22:19:40.449Z,97938.03
2022-08-03T22:21:47.284Z,97933.28
2022-08-03T22:23:53.925Z,97940.88
2022-08-03T22:25:57.902Z,97947.63
2022-08-03T22:28:02.677Z,97941.88
2022-08-03T22:30:12.243Z,97939.59
2022-08-03T22:32:15.479Z,97941.03
2022-08-03T22:34:18.581Z,97946.97
2022-08-03T22:36:29.675Z,97941.41
2022-08-03T22:38:33.936Z,97941.19
2022-08-03T22:40:38.624Z,97937.88
2022-08-03T22:42:44.409Z,97943.00
2022-08-03T22:44:50.794Z,97939.91
2022-08-03T22:46:55.721Z,97945.00
2022-08-03T22:48:59.018Z,97941.09
2022-08-03T22:51:03.277Z,97939.84
2022-08-03T22:53:07.907Z,97940.22
2022-08-03T22:55:13.516Z,97943.47
2022-08-03T22:57:27.982Z,97945.91
2022-08-03T22:59:39.748Z,97944.03
2022-08-03T23:01:45.115Z,97941.94
2022-08-03T23:04:00.253Z,97945.19
2022-08-03T23:06:06.767Z,97942.09
2022-08-03T23:08:09.962Z,97943.50
2022-08-03T23:10:14.489Z,97942.88
2022-08-03T23:12:19.647Z,97943.47
2022-08-03T23:14:24.464Z,97943.88
2022-08-03T23:16:29.718Z,97944.44
2022-08-03T23:18:37.356Z,97943.38
2022-08-03T23:20:42.027Z,97943.56
2022-08-03T23:22:48.454Z,97942.94
2022-08-03T23:24:54.698Z,97947.00
2022-08-03T23:26:58.646Z,97949.25
2022-08-03T23:29:02.563Z,97945.97
2022-08-03T23:31:05.685Z,97954.53
2022-08-03T23:33:09.798Z,97954.91
2022-08-03T23:36:29.295Z,97954.44
2022-08-03T23:38:04.598Z,97951.91
2022-08-03T23:40:23.188Z,97955.34
2022-08-03T23:42:26.672Z,97946.09
2022-08-03T23:44:31.362Z,97960.00
2022-08-03T23:46:34.522Z,97956.69
2022-08-03T23:48:37.636Z,97961.56
2022-08-03T23:50:45.052Z,97954.16
2022-08-03T23:52:57.807Z,97962.34
2022-08-03T23:55:08.293Z,97959.25
2022-08-03T23:57:19.017Z,97963.28
2022-08-03T23:59:27.054Z,97955.66
